Time;durP1;ratioP1;P1;durP2;ratioP2;P2;SDS_P1;SDS_P2;PMS_P1;PMS_P2;Temp;Humidity;BMP_temperature;BMP_pressure;BME280_temperature;BME280_humidity;BME280_pressure;Samples;Min_cycle;Max_cycle;Signal;HPM_P1;HPM_P2
2022/09/11 00:00:33;;;;;;;27.40;23.48;;;;;;;13.16;100.00;101656.00;5112197;28;20502;-74
2022/09/11 00:02:59;;;;;;;30.65;25.27;;;;;;;13.17;100.00;101660.38;5105104;28;20513;-74
2022/09/11 00:05:24;;;;;;;32.53;23.40;;;;;;;13.18;100.00;101655.94;5110071;28;20031;-74
2022/09/11 00:07:50;;;;;;;28.55;23.25;;;;;;;13.22;100.00;101661.88;5110757;28;20506;-74
2022/09/11 00:10:16;;;;;;;29.73;24.40;;;;;;;13.13;100.00;101653.59;5109908;28;20027;-74
2022/09/11 00:12:42;;;;;;;31.27;23.88;;;;;;;13.18;100.00;101655.94;5111653;28;20027;-82
2022/09/11 00:15:08;;;;;;;28.20;24.02;;;;;;;13.12;100.00;101659.81;5112917;28;20024;-74
2022/09/11 00:17:33;;;;;;;28.73;23.95;;;;;;;13.13;100.00;101648.31;5112738;28;20090;-74
2022/09/11 00:20:00;;;;;;;28.23;23.80;;;;;;;13.11;100.00;101655.50;5105057;27;20430;-74
2022/09/11 00:22:28;;;;;;;26.60;21.67;;;;;;;13.07;100.00;101663.75;5112929;28;20483;-74
2022/09/11 00:24:54;;;;;;;25.50;22.80;;;;;;;13.06;100.00;101652.34;5113256;28;20099;-74
2022/09/11 00:27:19;;;;;;;25.95;23.30;;;;;;;13.07;100.00;101659.31;5111899;28;20420;-82
2022/09/11 00:29:45;;;;;;;28.75;22.63;;;;;;;13.03;100.00;101663.13;5112707;28;20023;-74
2022/09/11 00:32:11;;;;;;;26.48;22.38;;;;;;;13.02;100.00;101661.44;5111039;28;20066;-74
2022/09/11 00:34:38;;;;;;;24.90;22.10;;;;;;;12.97;100.00;101666.22;5111008;28;20030;-74
2022/09/11 00:37:03;;;;;;;30.50;25.83;;;;;;;12.99;100.00;101671.38;5098227;28;20451;-81
2022/09/11 00:39:29;;;;;;;27.90;24.33;;;;;;;12.95;100.00;101668.13;5103000;28;20130;-74
2022/09/11 00:41:54;;;;;;;27.67;24.80;;;;;;;12.99;100.00;101669.59;5110067;28;20102;-74
2022/09/11 00:44:22;;;;;;;28.70;23.98;;;;;;;12.95;100.00;101678.69;5110677;28;20427;-74
2022/09/11 00:47:05;;;;;;;28.73;25.23;;;;;;;12.96;100.00;101683.03;5111000;27;20024;-74
2022/09/11 00:49:51;;;;;;;28.13;24.10;;;;;;;12.98;100.00;101678.47;5110866;28;20031;-74
2022/09/11 00:52:26;;;;;;;27.95;23.98;;;;;;;12.87;100.00;101683.66;5106897;28;20539;-74
2022/09/11 00:55:00;;;;;;;28.95;25.73;;;;;;;12.91;100.00;101689.59;5099066;28;20044;-74
2022/09/11 00:57:29;;;;;;;28.20;25.08;;;;;;;12.87;100.00;101686.31;5110780;28;20054;-74
2022/09/11 00:59:57;;;;;;;31.55;26.08;;;;;;;12.84;100.00;101684.72;5111446;28;20026;-74
2022/09/11 01:02:26;;;;;;;30.73;25.00;;;;;;;12.82;100.00;101684.00;5110046;28;20473;-74
2022/09/11 01:04:52;;;;;;;29.33;25.05;;;;;;;12.83;100.00;101682.19;5111087;28;20085;-73
2022/09/11 01:07:19;;;;;;;27.65;24.67;;;;;;;12.82;100.00;101691.06;5109023;28;20043;-74
2022/09/11 01:09:46;;;;;;;32.75;24.10;;;;;;;12.79;100.00;101693.91;5103323;28;20804;-74
2022/09/11 01:12:36;;;;;;;36.20;28.05;;;;;;;12.87;100.00;101696.88;5109963;28;20019;-74
2022/09/11 01:15:08;;;;;;;33.00;28.80;;;;;;;12.83;100.00;101692.78;5110348;28;20019;-74
2022/09/11 01:18:08;;;;;;;39.83;31.90;;;;;;;12.88;100.00;101701.22;5111221;28;20024;-74
2022/09/11 01:20:51;;;;;;;36.75;30.35;;;;;;;12.85;100.00;101690.88;5111800;28;20023;-73
2022/09/11 01:23:22;;;;;;;;;;;;;;;12.95;100.00;101691.91;5111114;28;20023;-74
2022/09/11 01:26:31;;;;;;;42.38;30.13;;;;;;;12.86;100.00;101690.75;5103327;28;20007;-74
2022/09/11 01:29:14;;;;;;;39.47;30.13;;;;;;;12.78;100.00;101686.94;5111189;27;20554;-74
2022/09/11 01:31:51;;;;;;;40.13;31.23;;;;;;;12.77;100.00;101690.53;5109985;28;20031;-73
2022/09/11 01:34:44;;;;;;;39.70;31.85;;;;;;;12.80;100.00;101695.59;5109550;28;20031;-74
2022/09/11 01:37:13;;;;;;;;;;;;;;;12.89;100.00;101692.34;5109292;28;20031;-73
2022/09/11 01:39:59;;;;;;;37.67;29.77;;;;;;;12.78;100.00;101692.22;5110578;28;19915;-74
2022/09/11 01:42:28;;;;;;;34.67;29.65;;;;;;;12.75;100.00;101695.06;5108239;28;20502;-74
2022/09/11 01:44:58;;;;;;;36.30;31.88;;;;;;;12.76;100.00;101699.41;5094183;28;20399;-75
2022/09/11 01:47:24;;;;;;;38.72;32.20;;;;;;;12.71;100.00;101694.44;5094186;28;20028;-75
2022/09/11 01:49:54;;;;;;;44.10;34.28;;;;;;;12.71;100.00;101707.66;5110039;27;20031;-75
2022/09/11 01:52:28;;;;;;;44.30;33.83;;;;;;;12.70;100.00;101692.75;5107812;28;20016;-75
2022/09/11 01:55:00;;;;;;;47.70;35.35;;;;;;;12.68;100.00;101704.38;5110359;28;20081;-75
2022/09/11 01:57:35;;;;;;;41.10;33.50;;;;;;;12.68;100.00;101699.94;5109052;28;20026;-75
2022/09/11 02:00:05;;;;;;;41.22;32.75;;;;;;;12.64;100.00;101705.53;5103060;28;20024;-75
2022/09/11 02:02:35;;;;;;;42.60;32.63;;;;;;;12.61;100.00;101705.75;5108901;28;20031;-75
2022/09/11 02:05:03;;;;;;;37.00;30.45;;;;;;;12.59;100.00;101705.84;5108781;28;20038;-75
2022/09/11 02:07:35;;;;;;;34.53;30.02;;;;;;;12.58;100.00;101703.31;5108282;28;20073;-75
2022/09/11 02:10:39;;;;;;;38.08;30.88;;;;;;;12.64;100.00;101705.53;5108216;28;20020;-75
2022/09/11 02:13:12;;;;;;;36.30;30.40;;;;;;;12.48;100.00;101709.25;5107533;28;20076;-75
2022/09/11 02:15:43;;;;;;;36.40;30.38;;;;;;;12.48;100.00;101709.25;5109606;28;20023;-75
2022/09/11 02:18:34;;;;;;;35.20;31.17;;;;;;;12.51;100.00;101714.31;5103280;28;20017;-75
2022/09/11 02:20:59;;;;;;;40.58;31.40;;;;;;;12.46;100.00;101711.13;5109415;28;20024;-75
2022/09/11 02:23:24;;;;;;;38.25;31.80;;;;;;;12.42;100.00;101712.31;5108683;28;20019;-76
2022/09/11 02:25:50;;;;;;;36.55;29.42;;;;;;;12.38;100.00;101708.16;5108810;28;20077;-75
2022/09/11 02:28:15;;;;;;;35.20;29.20;;;;;;;12.43;100.00;101715.78;5110382;28;20094;-75
2022/09/11 02:30:42;;;;;;;36.75;30.35;;;;;;;12.41;100.00;101715.88;5110706;28;20015;-75
2022/09/11 02:33:31;;;;;;;33.65;28.52;;;;;;;12.39;100.00;101714.28;5108634;28;20016;-75
2022/09/11 02:36:28;;;;;;;32.90;28.73;;;;;;;12.38;100.00;101712.59;5103747;28;20023;-75
2022/09/11 02:39:18;;;;;;;34.10;28.23;;;;;;;12.35;100.00;101711.00;5110762;28;20031;-75
2022/09/11 02:41:58;;;;;;;33.58;28.00;;;;;;;12.31;100.00;101720.06;5110084;28;20031;-75
2022/09/11 02:44:39;;;;;;;32.63;26.92;;;;;;;12.24;100.00;101716.16;5110221;28;20173;-75
2022/09/11 02:47:28;;;;;;;29.50;26.38;;;;;;;12.28;100.00;101719.44;5108450;28;20483;-75
2022/09/11 02:50:17;;;;;;;34.10;26.40;;;;;;;12.24;100.00;101721.44;5111041;28;20383;-75
2022/09/11 02:53:03;;;;;;;29.08;25.80;;;;;;;12.19;100.00;101716.47;5100693;28;20077;-75
2022/09/11 02:55:52;;;;;;;29.70;25.88;;;;;;;12.18;100.00;101727.97;5108194;28;20024;-75
2022/09/11 02:58:29;;;;;;;29.77;26.63;;;;;;;12.16;100.00;101732.50;5108513;28;20115;-75
2022/09/11 03:00:58;;;;;;;31.58;27.75;;;;;;;12.19;100.00;101723.53;5107227;28;20023;-75
2022/09/11 03:03:23;;;;;;;31.13;27.80;;;;;;;12.18;100.00;101722.69;5109607;28;20035;-75
2022/09/11 03:05:48;;;;;;;33.20;26.23;;;;;;;12.18;100.00;101737.69;5113643;28;20065;-74
2022/09/11 03:08:16;;;;;;;31.38;26.98;;;;;;;12.15;100.00;101727.34;5112301;28;20023;-75
2022/09/11 03:10:43;;;;;;;35.45;29.33;;;;;;;12.13;100.00;101737.16;5108604;28;20466;-74
2022/09/11 03:13:09;;;;;;;38.17;28.80;;;;;;;12.10;100.00;101745.25;5114199;28;20027;-75
2022/09/11 03:15:35;;;;;;;36.33;29.77;;;;;;;12.12;100.00;101743.38;5108415;28;20069;-75
2022/09/11 03:18:00;;;;;;;36.25;29.80;;;;;;;12.12;100.00;101744.22;5111561;28;20030;-74
2022/09/11 03:20:25;;;;;;;43.00;32.15;;;;;;;12.12;100.00;101744.22;5114546;28;20092;-75
2022/09/11 03:22:51;;;;;;;47.33;32.80;;;;;;;12.17;100.00;101746.53;5112818;28;20016;-75
2022/09/11 03:25:16;;;;;;;50.72;32.50;;;;;;;12.14;100.00;101741.47;5105627;28;20103;-75
2022/09/11 03:27:42;;;;;;;68.38;35.42;;;;;;;12.14;100.00;101736.19;5105794;28;20016;-75
2022/09/11 03:30:07;;;;;;;62.50;34.58;;;;;;;12.11;100.00;101736.41;5109204;28;20019;-75
2022/09/11 03:32:33;;;;;;;47.28;30.17;;;;;;;12.15;100.00;101738.72;5111584;28;20030;-75
2022/09/11 03:35:01;;;;;;;109.70;34.88;;;;;;;12.12;100.00;101738.94;5112734;28;20024;-75
2022/09/11 03:37:26;;;;;;;86.13;33.53;;;;;;;12.12;100.00;101735.44;5118686;28;20054;-75
2022/09/11 03:39:53;;;;;;;38.25;30.92;;;;;;;12.13;100.00;101743.25;5112146;28;20379;-75
2022/09/11 03:42:19;;;;;;;32.55;28.45;;;;;;;12.14;100.00;101747.59;5112291;28;20023;-74
2022/09/11 03:44:44;;;;;;;32.28;27.63;;;;;;;12.10;100.00;101751.38;5108837;28;20062;-74
2022/09/11 03:47:12;;;;;;;38.85;28.48;;;;;;;12.08;100.00;101757.72;5110950;28;20024;-75
2022/09/11 03:49:38;;;;;;;40.42;27.80;;;;;;;12.05;100.00;101752.63;5108858;28;20028;-74
2022/09/11 03:52:04;;;;;;;107.20;29.58;;;;;;;12.04;100.00;101748.31;5108697;28;20027;-74
2022/09/11 03:54:31;;;;;;;72.05;26.98;;;;;;;12.04;100.00;101746.53;5109465;28;20430;-74
2022/09/11 03:56:57;;;;;;;30.33;24.40;;;;;;;12.01;100.00;101741.44;5109034;28;20020;-74
2022/09/11 03:59:24;;;;;;;59.42;25.75;;;;;;;12.02;100.00;101742.28;5105164;28;20134;-74
2022/09/11 04:01:49;;;;;;;51.95;24.58;;;;;;;11.96;100.00;101740.03;5104101;28;20061;-74
2022/09/11 04:04:15;;;;;;;37.35;24.38;;;;;;;11.92;100.00;101737.59;5108145;28;20186;-74
2022/09/11 04:06:40;;;;;;;47.70;24.40;;;;;;;11.93;100.00;101744.56;5112206;28;20556;-74
2022/09/11 04:09:07;;;;;;;56.78;26.63;;;;;;;11.90;100.00;101738.66;5111848;28;20115;-74
2022/09/11 04:11:37;;;;;;;29.88;24.15;;;;;;;11.91;100.00;101735.91;5111149;28;20403;-74
2022/09/11 04:14:03;;;;;;;35.97;23.45;;;;;;;11.91;100.00;101735.06;5111379;28;20168;-74
2022/09/11 04:16:31;;;;;;;32.55;22.90;;;;;;;11.91;100.00;101740.34;5110199;28;20437;-74
2022/09/11 04:18:58;;;;;;;25.25;22.83;;;;;;;11.97;100.00;101744.34;5109994;28;20030;-82
2022/09/11 04:21:26;;;;;;;33.08;23.67;;;;;;;11.96;100.00;101747.94;5110524;28;20027;-82
2022/09/11 04:23:54;;;;;;;32.63;22.35;;;;;;;11.92;100.00;101742.88;5112047;28;20016;-74
2022/09/11 04:26:22;;;;;;;31.25;22.27;;;;;;;11.92;100.00;101750.78;5108873;28;20028;-74
2022/09/11 04:28:47;;;;;;;27.25;22.23;;;;;;;11.91;100.00;101742.97;5111948;28;20023;-74
2022/09/11 04:31:14;;;;;;;24.40;22.20;;;;;;;11.97;100.00;101744.34;5109363;28;20024;-74
2022/09/11 04:33:40;;;;;;;25.17;22.38;;;;;;;11.98;100.00;101741.63;5111100;28;20547;-74
2022/09/11 04:36:07;;;;;;;27.77;22.27;;;;;;;11.96;100.00;101747.94;5104417;28;20028;-74
2022/09/11 04:38:32;;;;;;;41.50;23.63;;;;;;;11.97;100.00;101753.13;5111435;28;20360;-74
2022/09/11 04:41:03;;;;;;;76.25;24.55;;;;;;;11.96;100.00;101751.41;5110537;28;20023;-74
2022/09/11 04:43:30;;;;;;;163.93;32.28;;;;;;;11.84;100.00;101749.59;5109125;28;20069;-74
2022/09/11 04:46:04;;;;;;;50.50;25.00;;;;;;;11.86;100.00;101748.53;5111659;28;20027;-81
2022/09/11 04:48:29;;;;;;;54.78;24.52;;;;;;;11.89;100.00;101752.78;5110380;28;20930;-82
2022/09/11 04:51:04;;;;;;;47.85;23.45;;;;;;;11.89;100.00;101758.03;5111323;28;20023;-74
2022/09/11 04:53:33;;;;;;;47.95;24.10;;;;;;;11.87;100.00;101759.94;5105393;28;20373;-74
2022/09/11 04:56:11;;;;;;;45.47;24.58;;;;;;;11.92;100.00;101765.75;5111822;28;20030;-74
2022/09/11 04:58:36;;;;;;;45.50;22.95;;;;;;;11.85;100.00;101761.84;5111962;28;20030;-74
2022/09/11 05:01:29;;;;;;;57.92;24.10;;;;;;;11.92;100.00;101763.97;5109556;28;20027;-74
2022/09/11 05:03:59;;;;;;;55.50;23.90;;;;;;;11.88;100.00;101754.56;5106752;28;20050;-74
2022/09/11 05:06:24;;;;;;;111.10;26.83;;;;;;;11.77;100.00;101754.38;5111927;28;20026;-74
2022/09/11 05:08:50;;;;;;;62.35;24.40;;;;;;;11.76;100.00;101752.69;5111469;28;20020;-74
2022/09/11 05:11:17;;;;;;;41.75;24.02;;;;;;;11.81;100.00;101755.91;5103136;28;20424;-74
2022/09/11 05:13:43;;;;;;;28.83;23.75;;;;;;;11.84;100.00;101760.13;5110674;28;20055;-74
2022/09/11 05:16:10;;;;;;;28.15;25.42;;;;;;;11.92;100.00;101769.25;5107547;28;20020;-74
2022/09/11 05:18:37;;;;;;;106.65;29.60;;;;;;;11.81;100.00;101771.72;5110420;28;20116;-74
2022/09/11 05:21:16;;;;;;;42.70;22.70;;;;;;;11.75;100.00;101785.28;5111037;28;20019;-81
2022/09/11 05:23:46;;;;;;;39.60;21.48;;;;;;;11.71;100.00;101786.44;5109017;28;20055;-74
2022/09/11 05:26:17;;;;;;;36.47;23.30;;;;;;;11.70;100.00;101795.28;5110020;28;20019;-75
2022/09/11 05:28:43;;;;;;;74.25;25.23;;;;;;;11.53;100.00;101788.41;5102493;28;20081;-74
2022/09/11 05:31:17;;;;;;;36.03;22.52;;;;;;;11.53;100.00;101798.13;5108982;28;20495;-75
2022/09/11 05:33:43;;;;;;;36.08;23.25;;;;;;;11.48;100.00;101802.81;5110694;28;20049;-81
2022/09/11 05:36:13;;;;;;;54.30;25.98;;;;;;;11.50;100.00;101809.69;5109292;28;20029;-74
2022/09/11 05:38:39;;;;;;;36.95;22.55;;;;;;;11.44;100.00;101814.50;5108824;28;20032;-74
2022/09/11 05:41:06;;;;;;;48.65;23.33;;;;;;;11.36;100.00;101817.63;5109512;28;20475;-74
2022/09/11 05:43:32;;;;;;;42.00;24.60;;;;;;;11.33;100.00;101816.97;5109171;28;20047;-74
2022/09/11 05:45:58;;;;;;;52.78;23.98;;;;;;;11.29;100.00;101827.69;5102673;28;20106;-82
2022/09/11 05:48:27;;;;;;;26.20;23.55;;;;;;;11.35;100.00;101830.88;5110265;28;20123;-81
2022/09/11 05:51:01;;;;;;;24.02;21.73;;;;;;;11.39;100.00;101827.13;5108204;28;20020;-75
2022/09/11 05:53:32;;;;;;;24.05;21.80;;;;;;;11.42;100.00;101829.56;5108670;28;20027;-75
2022/09/11 05:56:05;;;;;;;30.47;22.13;;;;;;;11.48;100.00;101837.09;5110272;28;20023;-74
2022/09/11 05:58:32;;;;;;;34.95;22.83;;;;;;;11.44;100.00;101835.59;5108004;28;20027;-74
2022/09/11 06:01:10;;;;;;;31.25;21.92;;;;;;;11.47;100.00;101840.66;5109832;28;20357;-74
2022/09/11 06:03:36;;;;;;;28.88;20.98;;;;;;;11.47;100.00;101844.16;5102153;28;20038;-74
2022/09/11 06:06:10;;;;;;;24.77;22.38;;;;;;;11.51;100.00;101836.91;5105067;28;20479;-74
2022/09/11 06:08:37;;;;;;;43.65;23.17;;;;;;;11.50;100.00;101840.47;5109398;28;20483;-74
2022/09/11 06:11:06;;;;;;;57.63;22.42;;;;;;;11.51;100.00;101842.16;5108672;28;20077;-74
2022/09/11 06:13:34;;;;;;;90.43;25.83;;;;;;;11.44;100.00;101846.13;5110266;28;20110;-73
2022/09/11 06:16:01;;;;;;;72.22;25.48;;;;;;;11.49;100.00;101844.06;5108603;28;20023;-73
2022/09/11 06:18:27;;;;;;;79.28;24.85;;;;;;;11.48;100.00;101855.53;5109502;28;20427;-74
2022/09/11 06:20:57;;;;;;;66.30;25.17;;;;;;;11.55;100.00;101851.56;5110489;28;20062;-74
2022/09/11 06:23:22;;;;;;;109.45;27.80;;;;;;;11.55;100.00;101848.94;5110289;28;20047;-74
2022/09/11 06:25:48;;;;;;;41.00;25.17;;;;;;;11.69;100.00;101856.84;5107711;28;20054;-74
2022/09/11 06:28:13;;;;;;;71.50;26.30;;;;;;;11.66;100.00;101862.31;5109079;28;20031;-74
2022/09/11 06:30:42;;;;;;;68.30;27.58;;;;;;;11.66;100.00;101872.88;5107512;28;20022;-74
2022/09/11 06:33:07;;;;;;;96.07;30.52;;;;;;;11.70;100.00;101863.81;5106705;28;20102;-74
2022/09/11 06:35:32;;;;;;;113.28;32.38;;;;;;;11.78;100.00;101874.75;5107562;28;20033;-74
2022/09/11 06:37:58;;;;;;;136.32;33.00;;;;;;;11.74;100.00;101873.22;5107626;28;20028;-74
2022/09/11 06:40:23;;;;;;;90.05;29.92;;;;;;;11.80;100.00;101870.25;5108182;28;20043;-74
2022/09/11 06:42:49;;;;;;;84.78;29.02;;;;;;;11.85;100.00;101868.16;5107927;28;20550;-74
2022/09/11 06:45:16;;;;;;;167.48;31.17;;;;;;;11.91;100.00;101870.41;5106761;28;20835;-74
2022/09/11 06:47:41;;;;;;;163.30;31.45;;;;;;;11.88;100.00;101873.22;5107269;28;20051;-74
2022/09/11 06:50:07;;;;;;;197.65;36.33;;;;;;;11.98;100.00;101873.50;5107087;28;20701;-74
2022/09/11 06:52:33;;;;;;;203.10;33.60;;;;;;;12.05;100.00;101876.63;5107308;28;20055;-74
2022/09/11 06:54:59;;;;;;;158.80;33.58;;;;;;;12.13;100.00;101876.97;5107104;28;20536;-75
2022/09/11 06:57:24;;;;;;;143.18;33.47;;;;;;;12.20;100.00;101878.25;5107427;28;20031;-75
2022/09/11 06:59:51;;;;;;;239.90;33.78;;;;;;;12.18;100.00;101874.88;5108082;28;20115;-74
2022/09/11 07:02:16;;;;;;;233.98;36.03;;;;;;;12.28;100.00;101886.53;5108008;28;20102;-74
2022/09/11 07:04:41;;;;;;;241.88;37.05;;;;;;;12.29;100.00;101882.94;5107534;28;20133;-74
2022/09/11 07:07:06;;;;;;;133.85;31.23;;;;;;;12.37;100.00;101885.06;5107980;28;20019;-74
2022/09/11 07:09:32;;;;;;;55.97;28.60;;;;;;;12.48;100.00;101880.81;5108500;28;20479;-74
2022/09/11 07:11:57;;;;;;;154.52;34.55;;;;;;;12.52;100.00;101887.59;5101873;28;20073;-74
2022/09/11 07:14:23;;;;;;;167.98;35.13;;;;;;;12.65;100.00;101889.41;5109381;28;20019;-74
2022/09/11 07:16:49;;;;;;;194.13;32.88;;;;;;;12.62;100.00;101890.47;5110101;28;20028;-75
2022/09/11 07:19:17;;;;;;;200.35;35.42;;;;;;;12.74;100.00;101879.09;5108008;28;20054;-74
2022/09/11 07:21:43;;;;;;;197.10;32.47;;;;;;;12.81;100.00;101879.53;5107527;28;20104;-74
2022/09/11 07:24:08;;;;;;;115.80;29.55;;;;;;;12.88;100.00;101886.09;5107940;28;20035;-75
2022/09/11 07:26:35;;;;;;;185.65;30.20;;;;;;;12.85;100.00;101883.66;5108063;28;20026;-75
2022/09/11 07:29:00;;;;;;;91.35;29.35;;;;;;;12.98;100.00;101879.25;5102691;28;20052;-75
2022/09/11 07:31:28;;;;;;;315.63;41.47;;;;;;;13.01;100.00;101883.47;5106076;28;20054;-74
2022/09/11 07:33:54;;;;;;;187.60;31.10;;;;;;;13.02;100.00;101878.09;5106795;28;20030;-74
2022/09/11 07:36:25;;;;;;;43.60;28.38;;;;;;;13.16;100.00;101883.28;5106937;28;20019;-74
2022/09/11 07:38:50;;;;;;;69.28;31.30;;;;;;;13.40;100.00;101886.06;5108132;28;20015;-74
2022/09/11 07:41:18;;;;;;;35.40;26.55;;;;;;;13.39;100.00;101880.88;5111086;28;20027;-75
2022/09/11 07:43:49;;;;;;;26.35;23.58;;;;;;;13.53;100.00;101875.47;5109669;28;20056;-75
2022/09/11 07:46:15;;;;;;;27.95;25.08;;;;;;;13.68;100.00;101877.06;5106239;28;20026;-75
2022/09/11 07:48:41;;;;;;;119.38;29.95;;;;;;;13.71;100.00;101871.56;5112506;28;20102;-83
2022/09/11 07:51:09;;;;;;;102.97;29.98;;;;;;;13.75;100.00;101873.03;5111388;28;20028;-82
2022/09/11 07:53:43;;;;;;;99.53;29.73;;;;;;;13.78;100.00;101866.66;5111207;28;20515;-83
2022/09/11 07:56:11;;;;;;;96.47;30.45;;;;;;;13.92;100.00;101879.75;5107032;28;20028;-76
2022/09/11 07:58:41;;;;;;;115.30;30.02;;;;;;;13.94;100.00;101883.13;5109362;28;20023;-76
2022/09/11 08:01:18;;;;;;;61.08;29.75;;;;;;;14.05;100.00;101887.69;5110544;28;20028;-76
2022/09/11 08:03:44;;;;;;;49.45;30.27;;;;;;;14.18;100.00;101883.19;5110484;28;20039;-82
2022/09/11 08:06:16;;;;;;;64.47;29.42;;;;;;;14.30;100.00;101890.22;5112115;28;20536;-76
2022/09/11 08:08:42;;;;;;;70.18;29.35;;;;;;;14.38;100.00;101887.84;5110467;28;20051;-76
2022/09/11 08:11:10;;;;;;;37.08;28.17;;;;;;;14.32;100.00;101888.31;5110815;28;20035;-75
2022/09/11 08:13:36;;;;;;;47.67;28.58;;;;;;;14.50;100.00;101890.59;5113453;27;20483;-76
2022/09/11 08:16:02;;;;;;;38.25;28.73;;;;;;;14.62;100.00;101895.00;5112721;28;20050;-76
2022/09/11 08:18:28;;;;;;;41.33;28.42;;;;;;;14.65;100.00;101894.75;5110873;28;20031;-76
2022/09/11 08:21:03;;;;;;;33.63;28.30;;;;;;;14.93;100.00;101898.84;5112257;28;20027;-76
2022/09/11 08:23:30;;;;;;;37.55;27.65;;;;;;;15.05;100.00;101895.25;5113096;28;20024;-76
2022/09/11 08:26:07;;;;;;;32.65;29.20;;;;;;;15.36;100.00;101907.03;5112997;28;20065;-83
2022/09/11 08:28:33;;;;;;;33.92;28.85;;;;;;;15.47;100.00;101912.34;5112808;28;20043;-82
2022/09/11 08:31:00;;;;;;;33.65;29.38;;;;;;;15.62;100.00;101913.00;5112420;28;20425;-83
2022/09/11 08:33:26;;;;;;;32.63;29.02;;;;;;;15.68;100.00;101906.38;5111449;28;20030;-77
2022/09/11 08:35:51;;;;;;;33.15;29.30;;;;;;;15.82;100.00;101911.41;5110230;28;20027;-77
2022/09/11 08:38:17;;;;;;;32.83;28.98;;;;;;;15.78;100.00;101907.31;5109419;28;20016;-77
2022/09/11 08:40:43;;;;;;;33.80;28.85;;;;;;;15.77;100.00;101910.94;5110077;28;20019;-77
2022/09/11 08:43:38;;;;;;;32.17;28.77;;;;;;;15.78;100.00;101917.94;5111037;28;20056;-77
2022/09/11 08:46:08;;;;;;;33.97;30.27;;;;;;;15.90;100.00;101916.97;5108817;28;20035;-87
2022/09/11 08:48:52;;;;;;;33.17;29.58;;;;;;;16.10;100.00;101913.56;5109698;28;20055;-77
2022/09/11 08:51:18;;;;;;;34.38;30.27;;;;;;;16.28;100.00;101917.38;5108504;28;20399;-87
2022/09/11 08:53:44;;;;;;;32.60;29.30;;;;;;;16.35;100.00;101916.88;5110775;28;20023;-77
2022/09/11 08:56:21;;;;;;;34.75;29.73;;;;;;;16.43;100.00;101915.31;5109251;28;20032;-77
2022/09/11 08:59:17;;;;;;;33.80;30.25;;;;;;;16.52;100.00;101921.69;5110733;28;20035;-77
2022/09/11 09:01:58;;;;;;;35.28;30.50;;;;;;;16.36;100.00;101916.75;5108827;28;20514;-79
2022/09/11 09:04:45;;;;;;;34.40;30.80;;;;;;;16.78;100.00;101923.06;5107363;28;20490;-77
2022/09/11 09:07:19;;;;;;;34.25;30.60;;;;;;;17.13;100.00;101913.94;5100184;28;20028;-77
2022/09/11 09:10:03;;;;;;;31.92;28.50;;;;;;;17.33;100.00;101921.09;5108252;28;20076;-77
2022/09/11 09:12:44;;;;;;;32.22;28.92;;;;;;;17.67;100.00;101912.91;5109667;28;20068;-78
2022/09/11 09:15:35;;;;;;;30.05;27.08;;;;;;;17.81;100.00;101925.84;5108851;28;20433;-78
2022/09/11 09:18:09;;;;;;;31.77;28.65;;;;;;;17.83;98.88;101931.88;5109945;28;20047;-77
2022/09/11 09:20:41;;;;;;;29.55;26.15;;;;;;;18.10;97.33;101921.47;5108515;28;20016;-84
2022/09/11 09:23:17;;;;;;;28.23;25.52;;;;;;;18.21;94.57;101932.97;5110864;28;20375;-77
2022/09/11 09:25:44;;;;;;;26.67;24.05;;;;;;;18.27;92.97;101924.44;5105517;28;20035;-78
2022/09/11 09:28:19;;;;;;;24.80;22.40;;;;;;;18.52;93.55;101926.59;5104098;28;20027;-78
2022/09/11 09:30:58;;;;;;;25.08;22.67;;;;;;;18.79;91.25;101928.59;5100786;28;20027;-77
2022/09/11 09:33:34;;;;;;;28.20;25.50;;;;;;;18.80;92.61;101927.59;5109431;28;20027;-78
2022/09/11 09:36:19;;;;;;;28.48;25.63;;;;;;;19.09;93.40;101930.28;5109435;28;20111;-76
2022/09/11 09:38:45;;;;;;;27.55;24.85;;;;;;;19.36;90.23;101932.19;5109152;28;20051;-76
2022/09/11 09:41:10;;;;;;;26.42;23.77;;;;;;;19.47;87.22;101936.53;5110278;28;20096;-76
2022/09/11 09:44:17;;;;;;;26.15;23.45;;;;;;;19.55;89.38;101936.66;5108749;28;20043;-77
2022/09/11 09:46:47;;;;;;;26.50;23.85;;;;;;;19.39;86.09;101938.09;5106978;28;20043;-84
2022/09/11 09:49:26;;;;;;;26.23;23.73;;;;;;;19.27;88.60;101936.56;5096925;28;20030;-76
2022/09/11 09:51:57;;;;;;;25.58;23.25;;;;;;;19.21;88.11;101928.28;5091751;28;20045;-76
2022/09/11 09:54:27;;;;;;;26.38;23.58;;;;;;;19.24;87.07;101934.19;5088874;28;20027;-76
2022/09/11 09:57:01;;;;;;;24.25;21.83;;;;;;;19.18;84.51;101932.06;5088370;28;20031;-76
2022/09/11 09:59:44;;;;;;;24.95;22.67;;;;;;;19.17;87.39;101933.06;5091806;28;20012;-76
2022/09/11 10:02:11;;;;;;;25.92;23.38;;;;;;;18.98;90.69;101928.59;5090599;28;20028;-85
2022/09/11 10:04:36;;;;;;;25.48;23.08;;;;;;;19.18;89.08;101934.75;5107911;28;20023;-76
2022/09/11 10:07:07;;;;;;;23.13;20.85;;;;;;;19.30;85.75;101936.28;5108647;28;20079;-76
2022/09/11 10:09:32;;;;;;;24.98;22.58;;;;;;;19.33;85.90;101936.00;5102432;28;20027;-76
2022/09/11 10:12:02;;;;;;;25.55;23.15;;;;;;;19.32;82.75;101936.16;5108720;28;20042;-75
2022/09/11 10:14:31;;;;;;;25.98;23.63;;;;;;;19.31;87.54;101934.47;5106638;28;20107;-75
2022/09/11 10:17:01;;;;;;;24.17;21.80;;;;;;;19.41;83.32;101936.13;5108480;28;20015;-76
2022/09/11 10:19:33;;;;;;;24.52;22.17;;;;;;;19.54;84.14;101940.31;5110422;28;20023;-76
2022/09/11 10:22:20;;;;;;;22.98;20.90;;;;;;;19.39;84.46;101932.75;5110189;28;20019;-77
2022/09/11 10:25:25;;;;;;;24.13;21.67;;;;;;;19.13;83.22;101929.00;5095156;28;20536;-77
2022/09/11 10:27:58;;;;;;;24.15;21.88;;;;;;;18.86;83.67;101934.22;5075749;28;20119;-77
2022/09/11 10:30:32;;;;;;;24.20;22.00;;;;;;;18.92;88.43;101933.66;5109854;28;20525;-77
2022/09/11 10:33:01;;;;;;;23.77;21.45;;;;;;;18.90;87.30;101930.28;5109025;28;20023;-77
2022/09/11 10:35:29;;;;;;;22.08;20.08;;;;;;;18.80;87.31;101930.28;5108366;28;20085;-75
2022/09/11 10:38:17;;;;;;;24.17;21.77;;;;;;;18.83;92.55;101931.84;5109800;28;20058;-76
2022/09/11 10:40:53;;;;;;;24.27;21.88;;;;;;;18.66;94.58;101931.53;5110266;28;20065;-76
2022/09/11 10:43:23;;;;;;;27.13;24.42;;;;;;;18.68;94.76;101926.91;5103007;28;20036;-76
2022/09/11 10:46:17;;;;;;;27.05;24.10;;;;;;;18.80;89.48;101924.94;5109687;28;20395;-83
2022/09/11 10:48:42;;;;;;;23.05;20.75;;;;;;;19.16;82.58;101926.03;5097053;28;20042;-77
2022/09/11 10:51:11;;;;;;;23.27;20.92;;;;;;;19.48;87.04;101930.19;5109570;28;20104;-84
2022/09/11 10:54:06;;;;;;;20.85;18.75;;;;;;;19.92;84.01;101924.16;5099424;28;20028;-84
2022/09/11 10:56:41;;;;;;;17.67;15.98;;;;;;;20.37;78.44;101922.50;5071447;28;20830;-85
2022/09/11 10:59:21;;;;;;;13.00;11.70;;;;;;;20.74;76.92;101925.06;5105886;28;20057;-84
2022/09/11 11:01:47;;;;;;;14.25;12.85;;;;;;;20.89;72.71;101923.53;5106681;28;20031;-77
2022/09/11 11:04:12;;;;;;;14.68;13.23;;;;;;;21.18;72.63;101932.13;5106084;28;20391;-77
2022/09/11 11:07:14;;;;;;;14.90;13.30;;;;;;;21.31;74.88;101918.38;5095537;28;20019;-77
2022/09/11 11:10:15;;;;;;;14.13;12.70;;;;;;;21.44;74.14;101924.13;5107432;28;20080;-77
2022/09/11 11:12:56;;;;;;;17.65;15.75;;;;;;;21.47;73.63;101928.34;5104270;28;20020;-78
2022/09/11 11:15:33;;;;;;;17.73;15.95;;;;;;;21.31;75.41;101928.25;5107008;28;20026;-78
2022/09/11 11:18:17;;;;;;;17.02;15.43;;;;;;;21.19;73.98;101923.09;5107469;28;20020;-86
2022/09/11 11:20:54;;;;;;;17.55;15.95;;;;;;;20.86;73.37;101930.06;5107865;28;20073;-84